sensor_id;sensor_type;location;lat;lon;timestamp;P1;durP1;ratioP1;P2;durP2;ratioP2
8946;SDS011;4508;48.790;9.028;2022-10-01T05:07:09;2.75;;;2.10;;
8946;SDS011;4508;48.790;9.028;2022-10-01T05:41:28;2.30;;;1.90;;
8946;SDS011;4508;48.790;9.028;2022-10-01T05:43:56;1.98;;;1.77;;
8946;SDS011;4508;48.790;9.028;2022-10-01T05:46:23;2.10;;;1.90;;
8946;SDS011;4508;48.790;9.028;2022-10-01T05:48:49;1.90;;;1.80;;
8946;SDS011;4508;48.790;9.028;2022-10-01T05:51:16;1.90;;;1.80;;
8946;SDS011;4508;48.790;9.028;2022-10-01T05:53:43;2.55;;;1.70;;
8946;SDS011;4508;48.790;9.028;2022-10-01T05:56:12;1.90;;;1.70;;
8946;SDS011;4508;48.790;9.028;2022-10-01T05:58:40;2.50;;;1.90;;
8946;SDS011;4508;48.790;9.028;2022-10-01T06:01:08;1.83;;;1.73;;
8946;SDS011;4508;48.790;9.028;2022-10-01T06:03:34;1.80;;;1.70;;
8946;SDS011;4508;48.790;9.028;2022-10-01T06:06:02;1.70;;;1.60;;
8946;SDS011;4508;48.790;9.028;2022-10-01T06:08:29;2.17;;;1.65;;
8946;SDS011;4508;48.790;9.028;2022-10-01T06:10:59;2.20;;;1.80;;
8946;SDS011;4508;48.790;9.028;2022-10-01T06:13:26;2.00;;;1.80;;
8946;SDS011;4508;48.790;9.028;2022-10-01T06:15:53;2.10;;;1.90;;
8946;SDS011;4508;48.790;9.028;2022-10-01T06:23:14;2.03;;;1.83;;
8946;SDS011;4508;48.790;9.028;2022-10-01T06:25:41;2.60;;;1.80;;
8946;SDS011;4508;48.790;9.028;2022-10-01T06:28:09;2.87;;;1.77;;
8946;SDS011;4508;48.790;9.028;2022-10-01T06:30:38;2.20;;;1.70;;
8946;SDS011;4508;48.790;9.028;2022-10-01T06:33:06;2.03;;;1.70;;
8946;SDS011;4508;48.790;9.028;2022-10-01T06:35:38;2.17;;;1.85;;
8946;SDS011;4508;48.790;9.028;2022-10-01T06:38:07;2.10;;;1.80;;
8946;SDS011;4508;48.790;9.028;2022-10-01T06:40:35;1.87;;;1.70;;
8946;SDS011;4508;48.790;9.028;2022-10-01T06:43:03;2.60;;;1.77;;
8946;SDS011;4508;48.790;9.028;2022-10-01T06:45:33;1.67;;;1.58;;
8946;SDS011;4508;48.790;9.028;2022-10-01T06:48:02;2.08;;;1.88;;
8946;SDS011;4508;48.790;9.028;2022-10-01T06:50:30;1.67;;;1.58;;
8946;SDS011;4508;48.790;9.028;2022-10-01T06:52:58;1.75;;;1.60;;
8946;SDS011;4508;48.790;9.028;2022-10-01T06:55:27;2.55;;;1.60;;
8946;SDS011;4508;48.790;9.028;2022-10-01T06:57:55;2.40;;;2.00;;
8946;SDS011;4508;48.790;9.028;2022-10-01T07:00:23;1.92;;;1.75;;
8946;SDS011;4508;48.790;9.028;2022-10-01T07:02:51;1.92;;;1.70;;
8946;SDS011;4508;48.790;9.028;2022-10-01T07:05:18;1.77;;;1.63;;
8946;SDS011;4508;48.790;9.028;2022-10-01T07:07:45;2.10;;;1.75;;
8946;SDS011;4508;48.790;9.028;2022-10-01T07:10:14;1.92;;;1.70;;
8946;SDS011;4508;48.790;9.028;2022-10-01T07:12:45;1.70;;;1.60;;
8946;SDS011;4508;48.790;9.028;2022-10-01T07:15:13;2.35;;;1.63;;
8946;SDS011;4508;48.790;9.028;2022-10-01T07:17:43;1.50;;;1.40;;
8946;SDS011;4508;48.790;9.028;2022-10-01T07:20:12;2.00;;;1.60;;
8946;SDS011;4508;48.790;9.028;2022-10-01T07:22:41;2.17;;;1.67;;
8946;SDS011;4508;48.790;9.028;2022-10-01T07:25:08;2.00;;;1.70;;
8946;SDS011;4508;48.790;9.028;2022-10-01T07:27:37;4.65;;;1.70;;
8946;SDS011;4508;48.790;9.028;2022-10-01T07:32:31;1.58;;;1.48;;
8946;SDS011;4508;48.790;9.028;2022-10-01T07:34:59;1.60;;;1.50;;
8946;SDS011;4508;48.790;9.028;2022-10-01T07:37:26;1.50;;;1.40;;
8946;SDS011;4508;48.790;9.028;2022-10-01T07:39:53;2.08;;;1.70;;
8946;SDS011;4508;48.790;9.028;2022-10-01T07:42:20;1.98;;;1.52;;
8946;SDS011;4508;48.790;9.028;2022-10-01T07:44:48;2.20;;;1.50;;
8946;SDS011;4508;48.790;9.028;2022-10-01T07:47:14;1.90;;;1.70;;
8946;SDS011;4508;48.790;9.028;2022-10-01T07:49:41;2.30;;;1.88;;
8946;SDS011;4508;48.790;9.028;2022-10-01T07:52:07;2.13;;;1.50;;
8946;SDS011;4508;48.790;9.028;2022-10-01T07:54:34;1.42;;;1.33;;
8946;SDS011;4508;48.790;9.028;2022-10-01T07:57:01;1.92;;;1.40;;
8946;SDS011;4508;48.790;9.028;2022-10-01T07:59:27;1.98;;;1.42;;
8946;SDS011;4508;48.790;9.028;2022-10-01T08:01:56;2.08;;;1.67;;
8946;SDS011;4508;48.790;9.028;2022-10-01T08:04:23;1.70;;;1.50;;
8946;SDS011;4508;48.790;9.028;2022-10-01T08:07:07;2.42;;;1.60;;
8946;SDS011;4508;48.790;9.028;2022-10-01T08:09:34;1.67;;;1.58;;
8946;SDS011;4508;48.790;9.028;2022-10-01T08:12:01;2.15;;;1.42;;
8946;SDS011;4508;48.790;9.028;2022-10-01T08:14:28;1.83;;;1.50;;
8946;SDS011;4508;48.790;9.028;2022-10-01T08:16:56;1.60;;;1.50;;
8946;SDS011;4508;48.790;9.028;2022-10-01T08:19:23;1.60;;;1.50;;
8946;SDS011;4508;48.790;9.028;2022-10-01T13:50:55;0.70;;;0.70;;
8946;SDS011;4508;48.790;9.028;2022-10-01T13:53:27;1.30;;;0.90;;
8946;SDS011;4508;48.790;9.028;2022-10-01T14:01:00;2.00;;;1.10;;
